Accueil
METAR-TAF:

METAR-TAF

Aéroports :

Aéroport de Tlemcen - Zenata - Messali El Hadj

Tlemcen, Algérie

latitude: 35-01N, longitude: 001-28W, altitude: 247 m

Observation

Le bulletin a été fait il y a 43 minutes, à 05:00 UTC
Vent calme
Température 20°C
Humidité 88%
Pression 1014 hPa
Visibilité 10 km ou plus
Nuages épars à une hauteur de 2000 ft

METAR: DAON 140500Z 00000KT 9999 SCT020 20/18 Q1014

Heure: 06:43 (05:43 UTC)

Prévision

Le bulletin a été fait il y a 6 heures et 43 minutes, à 23:00 UTC
Prévision valable du 14 à 00 UTC au 14 à 24 UTC
Vent 2 kt de direction variable
Visibilité 10 km ou plus
pas de nuages en-dessous de 1500 mètres et pas de cumulonimbus.
Evoluant progressivement
du 14 à 10 UTC au 14 à 13 UTC
Vent 12 kt de nord/nord-est
Evoluant progressivement
du 14 à 20 UTC au 14 à 23 UTC
Vent 2 kt de direction variable

TAF: DAON 132300Z 1400/1424 VRB02KT CAVOK BECMG 1410/1413 02012KT BECMG 1420/1423 VRB02KT

Observations et prévisions météorologiques de plus de 4000 aéroports (messages METAR et TAF).

Les stations disponibles sont représentées par des disques jaunes et rouges sur la carte.

Passer la souris dessus pour voir le nom de la station.

Cliquer dessus pour voir les observations et prévisions météorologiques.

Pour changer de carte: cliquez sur les boutons verts avec une croix noire pour zoomer, sur le bouton vert avec un tiret pour effectuer un zoom arrière, ou sur les flèches vertes pour les cartes adjacentes.


METAR-TAF: